Brook Knoll, Indiana
Current Conditions -  °F | °C
As of 1:53 PM on Sunday 23 Nov 2014 (Local Time) from KBMG Reporting Station
Light Rain Light Rain  
Wind Chill: 53°   Ceiling: 2600
Heat Index: 53°   Visibility: 4mi
Dew Point: 51°   Wind: 12mph
Humidity: 93%   Direction: 130°SE
Pressure: 29.62"   Gusts: NA
Location:  38.8737°N, 86.4563°W
Report Text: KBMG 231853Z 13010KT 4SM -RA BR FEW013 OVC026 12/11 A2962 RMK AO2 PRESFR SLP029 P0004 T01170106
Loading
Personal Weather Stations






























Interactive Weather Map New forecast layout! Learn more

10-Day Weather Forecast

Advertisements
Track Severe Weather on mobile